Cap Castillo — A8PI5 — position and weather

sailwx.info

Track history (hours):
 
Tides and Currents Weather Stations Pressure Air Temp Water Temp Dewpoint Dewpoint Depression Visibility Wind Speed Wind Dir Waves Ship Positions

Cap Castillo

Last reported at 2014-Sep-01 00:33 UTC. Time now 2014-Sep-01 07:57 UTC.
Position N 25°42' W 079°41'.

Length 215 m; draft 7.8 m.

Type: Ship. MMSI: 636091558.

Date/timePositionNaut miles runAvg speedWind from/ knotsBaromVisibWave heightAir tempDewpointWater temp
2014-Sep-01 00:33N 25°42' W 079°41'1010.4
2014-Aug-31 23:33N 25°49' W 079°49'1010.1
2014-Aug-31 22:33N 25°58' W 079°55'1010.4
2014-Aug-31 21:34N 26°06' W 080°02'5 5.3
2014-Aug-31 20:33N 26°04' W 080°07'0 0.0
2014-Aug-31 19:31N 26°04' W 080°07'0 0.0
2014-Aug-31 18:30N 26°04' W 080°07'0 0.0
2014-Aug-31 17:33N 26°04' W 080°07'0 0.0
2014-Aug-31 16:33N 26°04' W 080°07'0 0.0
2014-Aug-31 15:34N 26°04' W 080°07'0 0.0
2014-Aug-31 14:33N 26°04' W 080°07'0 0.0
2014-Aug-31 13:34N 26°04' W 080°07'0 0.0
2014-Aug-31 12:24N 26°04' W 080°07'0 0.0
2014-Aug-31 11:34N 26°04' W 080°07'0 0.0
2014-Aug-31 10:33N 26°04' W 080°07'0 0.2
2014-Aug-31 09:33N 26°04' W 080°07'5 5.3
2014-Aug-31 08:33N 26°06' W 080°01'1 1.1
2014-Aug-31 07:33N 26°06' W 080°00'5 5.3
2014-Aug-31 06:33N 26°11' W 079°57'3 2.7
2014-Aug-31 05:33N 26°08' W 079°56'3 2.8
2014-Aug-31 04:33N 26°05' W 079°56'3 3.0
2014-Aug-31 03:33N 26°02' W 079°55'3 2.9
2014-Aug-31 02:33N 25°59' W 079°55'3 3.1
2014-Aug-31 01:33N 25°56' W 079°54'1 0.6
2014-Aug-31 00:33N 25°57' W 079°55'6 6.1
2014-Aug-30 23:33N 25°59' W 080°01'2 2.0
2014-Aug-30 22:33N 25°57' W 080°01'2 1.9
2014-Aug-30 21:33N 25°55' W 079°60'5 5.2
2014-Aug-30 20:33N 26°00' W 079°58'1010.2
2014-Aug-30 19:33N 26°08' W 079°51'1110.9
2014-Aug-30 18:33N 26°13' W 079°40'1211.8
2014-Aug-30 17:33N 26°17' W 079°28'3013.0
2014-Aug-30 15:17N 26°26' W 078°56'912.1
2014-Aug-30 14:33N 26°30' W 078°47'333 7.6
2014-Aug-28 19:00N 23°42' W 073°30'81316.9 120 / 121017.0 5.4 1.032.030.730.0
2014-Aug-26 19:00N 13°24' W 064°12'   060 / 171012.010.8 1.530.028.729.0
Track history (hours):
 
Tides and Currents Weather Stations Pressure Air Temp Water Temp Dewpoint Dewpoint Depression Visibility Wind Speed Wind Dir Waves Ship Positions

Cap Castillo

Last reported at 2014-Sep-01 00:33 UTC. Time now 2014-Sep-01 07:57 UTC.
Position N 25°42' W 079°41'.

Length 215 m; draft 7.8 m.

Type: Ship. MMSI: 636091558.

Date/timePositionNaut miles runAvg speedWind from/ knotsBaromVisibWave heightAir tempDewpointWater temp
2014-Sep-01 00:33N 25°42' W 079°41'1010.4
2014-Aug-31 23:33N 25°49' W 079°49'1010.1
2014-Aug-31 22:33N 25°58' W 079°55'1010.4
2014-Aug-31 21:34N 26°06' W 080°02'5 5.3
2014-Aug-31 20:33N 26°04' W 080°07'0 0.0
2014-Aug-31 19:31N 26°04' W 080°07'0 0.0
2014-Aug-31 18:30N 26°04' W 080°07'0 0.0
2014-Aug-31 17:33N 26°04' W 080°07'0 0.0
2014-Aug-31 16:33N 26°04' W 080°07'0 0.0
2014-Aug-31 15:34N 26°04' W 080°07'0 0.0
2014-Aug-31 14:33N 26°04' W 080°07'0 0.0
2014-Aug-31 13:34N 26°04' W 080°07'0 0.0
2014-Aug-31 12:24N 26°04' W 080°07'0 0.0
2014-Aug-31 11:34N 26°04' W 080°07'0 0.0
2014-Aug-31 10:33N 26°04' W 080°07'0 0.2
2014-Aug-31 09:33N 26°04' W 080°07'5 5.3
2014-Aug-31 08:33N 26°06' W 080°01'1 1.1
2014-Aug-31 07:33N 26°06' W 080°00'5 5.3
2014-Aug-31 06:33N 26°11' W 079°57'3 2.7
2014-Aug-31 05:33N 26°08' W 079°56'3 2.8
2014-Aug-31 04:33N 26°05' W 079°56'3 3.0
2014-Aug-31 03:33N 26°02' W 079°55'3 2.9
2014-Aug-31 02:33N 25°59' W 079°55'3 3.1
2014-Aug-31 01:33N 25°56' W 079°54'1 0.6
2014-Aug-31 00:33N 25°57' W 079°55'6 6.1
2014-Aug-30 23:33N 25°59' W 080°01'2 2.0
2014-Aug-30 22:33N 25°57' W 080°01'2 1.9
2014-Aug-30 21:33N 25°55' W 079°60'5 5.2
2014-Aug-30 20:33N 26°00' W 079°58'1010.2
2014-Aug-30 19:33N 26°08' W 079°51'1110.9
2014-Aug-30 18:33N 26°13' W 079°40'1211.8
2014-Aug-30 17:33N 26°17' W 079°28'3013.0
2014-Aug-30 15:17N 26°26' W 078°56'912.1
2014-Aug-30 14:33N 26°30' W 078°47'333 7.6
2014-Aug-28 19:00N 23°42' W 073°30'81316.9 120 / 121017.0 5.4 1.032.030.730.0
2014-Aug-26 19:00N 13°24' W 064°12'   060 / 171012.010.8 1.530.028.729.0

Dump ship's entire track history